Time;durP1;ratioP1;P1;durP2;ratioP2;P2;SDS_P1;SDS_P2;PMS_P1;PMS_P2;Temp;Humidity;BMP_temperature;BMP_pressure;BME280_temperature;BME280_humidity;BME280_pressure;Samples;Min_cycle;Max_cycle;Signal;HPM_P1;HPM_P2
2024/02/21 00:00:53;;;;;;;12.40;4.63;;;8.60;99.90;;;;;;5069008;28;20206;-64
2024/02/21 00:03:21;;;;;;;6.18;5.47;;;8.50;99.90;;;;;;5070190;28;20205;-64
2024/02/21 00:05:48;;;;;;;9.75;5.75;;;8.60;99.90;;;;;;5070940;28;20230;-64
2024/02/21 00:08:15;;;;;;;11.60;5.32;;;8.50;99.90;;;;;;5070628;28;20206;-64
2024/02/21 00:10:42;;;;;;;10.10;4.47;;;8.50;99.90;;;;;;5070653;28;20289;-64
2024/02/21 00:13:08;;;;;;;6.20;4.40;;;8.50;99.90;;;;;;5070299;28;20469;-64
2024/02/21 00:15:35;;;;;;;7.57;4.90;;;8.50;99.90;;;;;;5070816;28;20546;-64
2024/02/21 00:18:02;;;;;;;8.90;4.40;;;8.50;99.90;;;;;;5051171;28;20517;-63
2024/02/21 00:20:30;;;;;;;12.57;5.60;;;8.60;99.90;;;;;;5050822;28;20210;-64
2024/02/21 00:22:57;;;;;;;8.07;5.28;;;8.50;99.90;;;;;;5050375;28;20330;-63
2024/02/21 00:25:24;;;;;;;6.50;4.80;;;8.50;99.90;;;;;;5050243;28;20690;-63
2024/02/21 00:27:51;;;;;;;6.43;4.67;;;8.50;99.90;;;;;;5050018;28;20451;-64
2024/02/21 00:30:18;;;;;;;8.35;5.57;;;8.50;99.90;;;;;;5050593;28;20888;-64
2024/02/21 00:32:44;;;;;;;7.68;5.28;;;8.50;99.90;;;;;;5050684;28;20210;-64
2024/02/21 00:35:12;;;;;;;11.15;5.38;;;8.50;99.90;;;;;;5070300;28;20249;-64
2024/02/21 00:37:40;;;;;;;7.70;5.32;;;8.40;99.90;;;;;;5070578;28;20791;-64
2024/02/21 00:40:08;;;;;;;9.55;5.63;;;8.50;99.90;;;;;;5070104;28;20209;-63
2024/02/21 00:42:34;;;;;;;11.43;5.18;;;8.40;99.90;;;;;;5070145;28;20205;-64
2024/02/21 00:45:01;;;;;;;8.68;4.72;;;8.40;99.90;;;;;;5069970;28;20238;-64
2024/02/21 00:47:28;;;;;;;12.00;7.18;;;8.40;99.90;;;;;;5070547;28;20216;-64
2024/02/21 00:49:56;;;;;;;7.18;5.15;;;8.40;99.90;;;;;;5070199;28;20598;-64
2024/02/21 00:52:22;;;;;;;11.60;5.35;;;8.40;99.90;;;;;;5069769;28;20224;-64
2024/02/21 00:54:51;;;;;;;8.95;5.78;;;8.40;99.90;;;;;;5070057;28;20232;-64
2024/02/21 00:57:17;;;;;;;8.75;5.53;;;8.30;99.90;;;;;;5069929;28;20225;-64
2024/02/21 00:59:44;;;;;;;8.30;5.20;;;8.30;99.90;;;;;;5067801;28;20202;-64
2024/02/21 01:02:11;;;;;;;6.45;4.45;;;8.30;99.90;;;;;;5068425;28;20220;-63
2024/02/21 01:04:38;;;;;;;5.90;4.32;;;8.20;99.90;;;;;;5069801;28;20205;-63
2024/02/21 01:07:05;;;;;;;8.20;4.95;;;8.20;99.90;;;;;;5069544;28;20583;-64
2024/02/21 01:09:32;;;;;;;5.47;4.72;;;8.20;99.90;;;;;;5069510;28;20216;-63
2024/02/21 01:12:00;;;;;;;10.18;5.97;;;8.20;99.90;;;;;;5069059;28;20213;-63
2024/02/21 01:14:27;;;;;;;11.45;6.75;;;8.20;99.90;;;;;;5069713;28;20301;-63
2024/02/21 01:16:54;;;;;;;7.85;5.00;;;8.20;99.90;;;;;;5069395;28;20233;-63
2024/02/21 01:19:21;;;;;;;8.90;5.93;;;8.20;99.90;;;;;;5069435;28;20241;-63
2024/02/21 01:21:48;;;;;;;9.18;5.90;;;8.20;99.90;;;;;;5069140;28;20210;-63
2024/02/21 01:24:14;;;;;;;8.43;5.03;;;8.20;99.90;;;;;;5069220;28;20216;-63
2024/02/21 01:26:42;;;;;;;5.70;4.85;;;8.20;99.90;;;;;;5069364;28;20333;-64
2024/02/21 01:29:10;;;;;;;7.75;6.95;;;8.20;99.90;;;;;;5069403;28;20215;-64
2024/02/21 01:31:37;;;;;;;11.57;5.45;;;8.20;99.90;;;;;;5069372;28;20209;-64
2024/02/21 01:34:04;;;;;;;6.63;4.50;;;8.20;99.90;;;;;;5069251;28;20210;-64
2024/02/21 01:36:30;;;;;;;7.40;5.60;;;8.20;99.90;;;;;;5069119;28;20742;-64
2024/02/21 01:38:57;;;;;;;12.68;6.63;;;8.20;99.90;;;;;;5068832;28;20237;-64
2024/02/21 01:41:24;;;;;;;10.07;5.75;;;8.20;99.90;;;;;;5069304;28;20210;-64
2024/02/21 01:43:51;;;;;;;13.30;7.13;;;8.20;99.90;;;;;;5068705;28;20701;-64
2024/02/21 01:46:19;;;;;;;6.97;5.40;;;8.30;99.90;;;;;;5068853;28;20483;-63
2024/02/21 01:48:47;;;;;;;7.78;5.97;;;8.30;99.90;;;;;;5068776;28;20205;-63
2024/02/21 01:51:14;;;;;;;5.65;4.43;;;8.30;99.90;;;;;;5069151;28;20214;-63
2024/02/21 01:53:44;;;;;;;10.63;5.47;;;8.20;99.90;;;;;;5068570;28;20860;-63
2024/02/21 01:56:11;;;;;;;9.43;5.22;;;8.30;99.90;;;;;;5068805;28;20230;-64
2024/02/21 01:58:40;;;;;;;11.52;5.55;;;8.30;99.90;;;;;;5069075;28;20351;-64
2024/02/21 02:01:07;;;;;;;15.02;6.72;;;8.30;99.90;;;;;;5069206;28;20263;-63
2024/02/21 02:03:35;;;;;;;9.35;6.28;;;8.30;99.90;;;;;;5069199;28;20231;-64
2024/02/21 02:06:02;;;;;;;8.60;5.78;;;8.30;99.90;;;;;;5068748;28;20343;-64
2024/02/21 02:08:29;;;;;;;8.80;4.93;;;8.30;99.90;;;;;;5068497;28;20296;-64
2024/02/21 02:10:57;;;;;;;8.52;6.25;;;8.30;99.90;;;;;;5068446;28;20206;-63
2024/02/21 02:13:23;;;;;;;14.23;6.43;;;8.20;99.90;;;;;;5067598;28;20209;-63
2024/02/21 02:15:51;;;;;;;10.77;7.15;;;8.20;99.90;;;;;;5068071;28;20235;-63
2024/02/21 02:18:20;;;;;;;7.22;4.97;;;8.20;99.90;;;;;;5068501;28;20232;-63
2024/02/21 02:20:49;;;;;;;21.85;7.60;;;8.10;99.90;;;;;;5068287;28;20304;-63
2024/02/21 02:23:22;;;;;;;10.55;6.15;;;8.10;99.90;;;;;;5068240;28;20305;-63
2024/02/21 02:25:51;;;;;;;8.57;6.10;;;8.10;99.90;;;;;;5067719;28;20233;-63
2024/02/21 02:28:19;;;;;;;12.93;6.95;;;8.00;99.90;;;;;;5068805;28;20217;-63
2024/02/21 02:30:46;;;;;;;9.70;6.30;;;8.00;99.90;;;;;;5068676;28;20300;-63
2024/02/21 02:33:13;;;;;;;9.63;5.95;;;8.00;99.90;;;;;;5068008;28;20210;-63
2024/02/21 02:35:40;;;;;;;11.77;6.82;;;7.90;99.90;;;;;;5068358;28;20233;-63
2024/02/21 02:38:07;;;;;;;10.75;6.90;;;7.90;99.90;;;;;;5068593;28;20235;-63
2024/02/21 02:40:36;;;;;;;15.43;6.90;;;7.90;99.90;;;;;;5068347;28;20209;-63
2024/02/21 02:43:03;;;;;;;8.88;8.07;;;7.90;99.90;;;;;;5067765;28;20220;-63
2024/02/21 02:45:31;;;;;;;8.37;5.73;;;7.90;99.90;;;;;;5068264;28;20275;-63
2024/02/21 02:47:58;;;;;;;10.02;7.20;;;7.90;99.90;;;;;;5068104;28;20513;-63
2024/02/21 02:50:25;;;;;;;10.48;8.23;;;7.80;99.90;;;;;;5068304;28;20216;-63
2024/02/21 02:52:52;;;;;;;11.15;7.35;;;7.80;99.90;;;;;;5067743;28;20221;-63
2024/02/21 02:55:19;;;;;;;8.02;7.10;;;7.80;99.90;;;;;;5068235;28;20225;-63
2024/02/21 02:57:47;;;;;;;13.48;6.63;;;7.80;99.90;;;;;;5068311;28;20229;-63
2024/02/21 03:00:15;;;;;;;10.75;7.85;;;7.80;99.90;;;;;;5067981;28;20300;-63
2024/02/21 03:02:44;;;;;;;7.32;6.15;;;7.80;99.90;;;;;;5067881;28;20864;-63
2024/02/21 03:05:17;;;;;;;13.57;7.43;;;7.80;99.90;;;;;;5068383;28;20711;-63
2024/02/21 03:07:45;;;;;;;9.38;6.03;;;7.80;99.90;;;;;;5068094;28;20376;-63
2024/02/21 03:10:12;;;;;;;11.00;7.05;;;7.80;99.90;;;;;;5067912;28;20807;-63
2024/02/21 03:12:39;;;;;;;12.15;6.55;;;7.80;99.90;;;;;;5067567;28;20210;-63
2024/02/21 03:15:08;;;;;;;10.13;7.47;;;7.80;99.90;;;;;;5067890;28;20255;-63
2024/02/21 03:17:35;;;;;;;12.82;7.57;;;7.80;99.90;;;;;;5067806;28;20233;-63
2024/02/21 03:20:05;;;;;;;13.30;6.63;;;7.70;99.90;;;;;;5067968;28;20320;-64
2024/02/21 03:22:31;;;;;;;11.07;6.30;;;7.80;99.90;;;;;;5067611;28;20296;-63
2024/02/21 03:24:58;;;;;;;10.75;7.13;;;7.80;99.90;;;;;;5068002;28;20237;-63
2024/02/21 03:27:25;;;;;;;12.63;7.07;;;7.80;99.90;;;;;;5070784;28;20216;-62
2024/02/21 03:29:52;;;;;;;10.95;6.00;;;7.70;99.90;;;;;;5071373;28;20205;-63
2024/02/21 03:32:21;;;;;;;12.10;6.00;;;7.70;99.90;;;;;;5071211;28;20505;-63
2024/02/21 03:34:47;;;;;;;7.63;6.28;;;7.70;99.90;;;;;;5071795;28;20279;-63
2024/02/21 03:37:14;;;;;;;8.82;6.88;;;7.70;99.90;;;;;;5071905;28;20242;-62
2024/02/21 03:39:41;;;;;;;17.17;7.35;;;7.70;99.90;;;;;;5071307;28;20236;-63
2024/02/21 03:42:08;;;;;;;10.88;6.60;;;7.70;99.90;;;;;;5070876;28;20212;-63
2024/02/21 03:44:35;;;;;;;12.73;5.65;;;7.70;99.90;;;;;;5071685;28;20319;-63
2024/02/21 03:47:02;;;;;;;11.43;6.90;;;7.70;99.90;;;;;;5071049;28;20245;-63
2024/02/21 03:49:30;;;;;;;8.52;6.35;;;7.70;99.90;;;;;;5071248;28;20560;-63
2024/02/21 03:51:57;;;;;;;9.90;6.85;;;7.70;99.90;;;;;;5070731;28;20202;-63
2024/02/21 03:54:24;;;;;;;6.60;5.88;;;7.70;99.90;;;;;;5071278;28;20693;-63
2024/02/21 03:56:51;;;;;;;12.25;5.85;;;7.60;99.90;;;;;;5070877;28;20225;-63
2024/02/21 03:59:18;;;;;;;15.18;6.50;;;7.70;99.90;;;;;;5070913;28;20244;-64
2024/02/21 04:01:45;;;;;;;15.30;8.82;;;7.60;99.90;;;;;;5070541;28;20213;-63
2024/02/21 04:04:12;;;;;;;9.60;6.97;;;7.60;99.90;;;;;;5071264;28;20219;-63
2024/02/21 04:06:48;;;;;;;10.00;9.00;;;7.70;99.90;;;;;;5070893;28;20239;-63
2024/02/21 04:09:15;;;;;;;17.55;7.30;;;7.70;99.90;;;;;;5070860;28;20212;-63
2024/02/21 04:11:42;;;;;;;8.05;6.65;;;7.60;99.90;;;;;;5070410;28;20209;-63
2024/02/21 04:14:11;;;;;;;12.23;6.70;;;7.60;99.90;;;;;;5071056;28;20296;-63
2024/02/21 04:16:38;;;;;;;10.55;6.57;;;7.60;99.90;;;;;;5070848;28;20735;-63
2024/02/21 04:19:04;;;;;;;14.07;6.18;;;7.60;99.90;;;;;;5070520;28;20225;-63
2024/02/21 04:21:31;;;;;;;8.45;6.20;;;7.60;99.90;;;;;;5070648;28;20213;-62
2024/02/21 04:23:59;;;;;;;8.73;6.05;;;7.60;99.90;;;;;;5070072;28;20214;-63
2024/02/21 04:26:26;;;;;;;10.68;9.38;;;7.60;99.90;;;;;;5070398;28;20736;-64
2024/02/21 04:31:34;;;;;;;7.85;5.95;;;7.60;99.90;;;;;;5028591;28;20217;-63
2024/02/21 04:34:01;;;;;;;9.10;6.03;;;7.50;99.90;;;;;;5027732;28;20302;-64
2024/02/21 04:36:28;;;;;;;10.52;5.43;;;7.50;99.90;;;;;;5027558;28;20661;-64
2024/02/21 04:38:54;;;;;;;17.17;6.75;;;7.50;99.90;;;;;;5027805;28;20227;-63
2024/02/21 04:41:22;;;;;;;8.23;6.00;;;7.40;99.90;;;;;;5028271;28;20211;-64
2024/02/21 04:43:49;;;;;;;10.95;5.50;;;7.40;99.90;;;;;;5027454;28;20221;-63
2024/02/21 04:46:16;;;;;;;10.30;6.03;;;7.30;99.90;;;;;;5027766;28;20345;-64
2024/02/21 04:48:43;;;;;;;9.95;6.15;;;7.30;99.90;;;;;;5027656;28;20207;-63
2024/02/21 04:51:10;;;;;;;8.95;7.07;;;7.20;99.90;;;;;;5027809;28;20218;-63
2024/02/21 04:53:37;;;;;;;15.25;6.53;;;7.20;99.90;;;;;;5027143;28;20710;-63
2024/02/21 04:56:04;;;;;;;9.82;6.43;;;7.20;99.90;;;;;;5027435;28;20286;-64
2024/02/21 04:58:32;;;;;;;11.82;8.32;;;7.10;99.90;;;;;;5027294;28;20270;-64
2024/02/21 05:00:59;;;;;;;10.95;7.10;;;7.20;99.90;;;;;;5027375;28;20211;-63
2024/02/21 05:03:26;;;;;;;12.85;7.82;;;7.10;99.90;;;;;;5065421;28;20206;-63
2024/02/21 05:05:53;;;;;;;8.98;8.13;;;7.10;99.90;;;;;;5069707;28;20241;-63
2024/02/21 05:08:19;;;;;;;8.63;6.97;;;7.10;99.90;;;;;;5069845;28;20198;-63
2024/02/21 05:10:46;;;;;;;11.45;6.38;;;7.20;99.90;;;;;;5069626;28;20212;-63
2024/02/21 05:13:13;;;;;;;11.20;6.72;;;7.20;99.90;;;;;;5069705;28;20209;-63
2024/02/21 05:15:41;;;;;;;12.15;6.97;;;7.20;99.90;;;;;;5070065;28;20234;-63
2024/02/21 05:18:08;;;;;;;10.85;7.80;;;7.30;99.90;;;;;;5069892;28;20305;-63
2024/02/21 05:20:35;;;;;;;18.45;8.95;;;7.30;99.90;;;;;;5069441;28;20215;-63
2024/02/21 05:23:02;;;;;;;12.52;8.20;;;7.30;99.90;;;;;;5069181;28;20213;-63
2024/02/21 05:25:28;;;;;;;8.10;7.18;;;7.30;99.90;;;;;;5069296;28;20243;-63
2024/02/21 05:27:55;;;;;;;13.57;7.40;;;7.30;99.90;;;;;;5069709;28;20211;-64
2024/02/21 05:30:22;;;;;;;12.38;9.07;;;7.30;99.90;;;;;;5069363;28;20634;-64
2024/02/21 05:32:50;;;;;;;9.85;8.05;;;7.40;99.90;;;;;;5069032;28;20212;-63
2024/02/21 05:35:17;;;;;;;12.48;8.82;;;7.40;99.90;;;;;;5069362;28;20316;-63
2024/02/21 05:37:46;;;;;;;14.07;8.45;;;7.40;99.90;;;;;;5069219;28;20209;-63
2024/02/21 05:40:14;;;;;;;11.75;8.25;;;7.40;99.90;;;;;;5069282;28;20245;-63
2024/02/21 05:42:41;;;;;;;10.25;7.80;;;7.40;99.90;;;;;;5068917;28;20249;-63
2024/02/21 05:45:08;;;;;;;9.98;8.15;;;7.40;99.90;;;;;;5069195;28;20252;-63
2024/02/21 05:47:35;;;;;;;10.38;7.15;;;7.40;99.90;;;;;;5069267;28;20751;-63
2024/02/21 05:50:03;;;;;;;10.25;9.18;;;7.40;99.90;;;;;;5068529;28;20620;-63
2024/02/21 05:52:30;;;;;;;13.93;8.95;;;7.40;99.90;;;;;;5068483;28;20244;-64
2024/02/21 05:54:57;;;;;;;12.57;7.15;;;7.40;99.90;;;;;;5068938;28;20206;-63
2024/02/21 05:57:24;;;;;;;9.45;8.40;;;7.40;99.90;;;;;;5069145;28;20300;-63
2024/02/21 05:59:51;;;;;;;11.25;8.10;;;7.40;99.90;;;;;;5068552;28;20738;-64
2024/02/21 06:02:17;;;;;;;12.57;8.98;;;7.40;99.90;;;;;;5068479;28;20220;-64
2024/02/21 06:04:46;;;;;;;10.25;9.38;;;7.40;99.90;;;;;;5068851;28;20209;-63
2024/02/21 06:07:14;;;;;;;13.02;8.27;;;7.30;99.90;;;;;;5068695;28;20213;-63
2024/02/21 06:09:41;;;;;;;13.43;8.90;;;7.40;99.90;;;;;;5068542;28;20201;-64
2024/02/21 06:12:08;;;;;;;13.95;8.60;;;7.30;99.90;;;;;;5068303;28;20213;-63
2024/02/21 06:14:35;;;;;;;5.93;5.43;;;7.30;99.90;;;;;;5068747;28;20296;-64
2024/02/21 06:17:02;;;;;;;9.02;6.15;;;7.30;99.90;;;;;;5068766;28;20247;-63
2024/02/21 06:19:29;;;;;;;9.65;6.25;;;7.30;99.90;;;;;;5068524;28;20225;-63
2024/02/21 06:21:56;;;;;;;15.30;6.88;;;7.20;99.90;;;;;;5068646;28;20209;-63
2024/02/21 06:24:24;;;;;;;15.02;6.72;;;7.10;99.90;;;;;;5068932;28;20297;-63
2024/02/21 06:26:51;;;;;;;12.38;7.97;;;7.10;99.90;;;;;;5068650;28;20251;-63
2024/02/21 06:29:17;;;;;;;11.18;7.38;;;7.00;99.90;;;;;;5068298;28;20205;-63
2024/02/21 06:31:44;;;;;;;7.60;6.50;;;7.00;99.90;;;;;;5068058;28;20213;-63
2024/02/21 06:34:11;;;;;;;14.05;8.00;;;7.00;99.90;;;;;;5068004;28;20209;-63
2024/02/21 06:36:38;;;;;;;8.75;8.05;;;6.90;99.90;;;;;;5068502;28;20618;-63
2024/02/21 06:39:07;;;;;;;11.23;7.80;;;6.90;99.90;;;;;;5068412;28;20240;-63
2024/02/21 06:41:35;;;;;;;12.60;10.70;;;6.90;99.90;;;;;;5068424;28;20699;-63
2024/02/21 06:44:02;;;;;;;13.35;9.85;;;7.00;99.90;;;;;;5067818;28;20301;-63
2024/02/21 06:46:30;;;;;;;15.27;10.15;;;7.00;99.90;;;;;;5068181;28;20279;-63
2024/02/21 06:48:57;;;;;;;13.00;9.32;;;7.00;99.90;;;;;;5068129;28;20206;-63
2024/02/21 06:51:24;;;;;;;12.88;10.07;;;7.10;99.90;;;;;;5068739;28;20210;-63
2024/02/21 06:53:51;;;;;;;19.38;9.73;;;7.10;99.90;;;;;;5069355;28;20339;-63
2024/02/21 06:56:18;;;;;;;11.25;10.13;;;7.10;99.90;;;;;;5068875;28;20230;-63
2024/02/21 06:58:46;;;;;;;12.57;9.60;;;7.20;99.90;;;;;;5067987;28;20711;-64
2024/02/21 07:01:13;;;;;;;13.27;9.02;;;7.20;99.90;;;;;;5071448;28;20223;-64
2024/02/21 07:03:40;;;;;;;13.82;10.05;;;7.30;99.90;;;;;;5071986;28;20209;-64
2024/02/21 07:06:07;;;;;;;17.80;11.05;;;7.30;99.90;;;;;;5072294;28;20691;-64
2024/02/21 07:08:34;;;;;;;18.85;11.63;;;7.30;99.90;;;;;;5072349;28;20595;-64
2024/02/21 07:11:00;;;;;;;11.75;10.02;;;7.30;99.90;;;;;;5072029;28;20216;-64
2024/02/21 07:13:27;;;;;;;14.85;10.10;;;7.40;99.90;;;;;;5071550;28;20209;-64
2024/02/21 07:15:55;;;;;;;11.73;10.18;;;7.30;99.90;;;;;;5071902;28;20229;-63
2024/02/21 07:18:22;;;;;;;15.52;11.15;;;7.40;99.90;;;;;;5072289;28;20314;-64
2024/02/21 07:20:49;;;;;;;16.15;11.10;;;7.40;99.90;;;;;;5071943;28;20844;-63
2024/02/21 07:23:16;;;;;;;15.80;10.95;;;7.40;99.90;;;;;;5071423;28;20205;-63
2024/02/21 07:25:43;;;;;;;13.23;10.02;;;7.50;99.90;;;;;;5072109;28;20601;-64
2024/02/21 07:28:09;;;;;;;15.70;10.65;;;7.50;99.90;;;;;;5071957;28;20206;-64
2024/02/21 07:30:36;;;;;;;11.48;10.15;;;7.60;99.90;;;;;;5071581;28;20704;-63
2024/02/21 07:33:07;;;;;;;12.85;9.25;;;7.60;99.90;;;;;;5071478;28;20827;-63
2024/02/21 07:35:33;;;;;;;10.25;8.73;;;7.60;99.90;;;;;;5071713;28;20245;-64
2024/02/21 07:38:00;;;;;;;12.10;10.90;;;7.60;99.90;;;;;;5071757;28;20589;-63
2024/02/21 07:40:27;;;;;;;11.35;8.63;;;7.70;99.90;;;;;;5071361;28;20260;-64
2024/02/21 07:42:54;;;;;;;14.45;9.95;;;7.70;99.90;;;;;;5070875;28;20216;-63
2024/02/21 07:45:23;;;;;;;11.75;9.30;;;7.80;99.90;;;;;;5071490;28;20694;-63
2024/02/21 07:47:50;;;;;;;12.00;8.60;;;7.80;99.90;;;;;;5071381;28;20214;-63
2024/02/21 07:50:18;;;;;;;19.50;10.25;;;7.90;99.90;;;;;;5071312;28;20205;-63
2024/02/21 07:52:45;;;;;;;12.05;7.88;;;7.90;99.90;;;;;;5071040;28;20220;-63
2024/02/21 07:55:12;;;;;;;11.60;8.77;;;8.00;99.90;;;;;;5071348;28;20716;-63
2024/02/21 07:57:39;;;;;;;12.45;7.45;;;8.00;99.90;;;;;;5071424;28;20206;-64
2024/02/21 08:00:09;;;;;;;12.63;9.27;;;8.00;99.90;;;;;;5071213;28;20229;-64
2024/02/21 08:02:37;;;;;;;17.35;7.10;;;8.10;99.90;;;;;;5070963;28;20217;-63
2024/02/21 08:05:04;;;;;;;8.30;7.07;;;8.10;99.90;;;;;;5071250;28;20863;-64
2024/02/21 08:07:32;;;;;;;9.30;6.82;;;8.10;99.90;;;;;;5071194;28;20206;-64
2024/02/21 08:09:59;;;;;;;9.77;6.85;;;8.10;99.90;;;;;;5070767;28;20202;-63
2024/02/21 08:12:26;;;;;;;23.23;9.35;;;8.20;99.90;;;;;;5069812;28;20235;-63
2024/02/21 08:14:53;;;;;;;12.13;7.97;;;8.20;99.90;;;;;;5069876;28;20237;-64
2024/02/21 08:17:20;;;;;;;12.15;7.10;;;8.20;99.90;;;;;;5070498;28;20243;-64
2024/02/21 08:19:49;;;;;;;13.80;7.82;;;8.20;99.90;;;;;;5065816;28;20225;-64
2024/02/21 08:22:16;;;;;;;11.48;7.43;;;8.20;99.90;;;;;;5069819;28;20213;-64
2024/02/21 08:24:44;;;;;;;8.90;7.20;;;8.20;99.90;;;;;;5070299;28;20219;-63
2024/02/21 08:27:11;;;;;;;12.07;7.45;;;8.20;99.90;;;;;;5070765;28;20583;-64
2024/02/21 08:29:37;;;;;;;11.35;6.57;;;8.30;99.90;;;;;;5070592;28;20220;-63
2024/02/21 08:32:05;;;;;;;10.13;6.80;;;8.30;99.90;;;;;;5069989;28;20216;-63
2024/02/21 08:34:33;;;;;;;9.82;7.30;;;8.30;99.90;;;;;;5070267;28;20209;-63
2024/02/21 08:37:00;;;;;;;15.70;9.20;;;8.30;99.90;;;;;;5069204;28;20232;-63
2024/02/21 08:39:28;;;;;;;10.95;6.47;;;8.30;99.90;;;;;;5070254;28;20234;-63
2024/02/21 08:41:57;;;;;;;9.13;8.00;;;8.30;99.90;;;;;;5069605;28;20212;-64
2024/02/21 08:44:25;;;;;;;12.07;8.10;;;8.30;99.90;;;;;;5070111;28;20688;-63
2024/02/21 08:46:52;;;;;;;11.27;6.78;;;8.40;99.90;;;;;;5069762;28;20287;-63
2024/02/21 08:49:19;;;;;;;11.57;6.93;;;8.50;99.90;;;;;;5069669;28;20212;-64
2024/02/21 08:51:46;;;;;;;38.73;13.27;;;8.50;99.90;;;;;;5069474;28;20206;-63
2024/02/21 08:54:13;;;;;;;28.02;10.90;;;8.60;99.90;;;;;;5070084;28;20448;-63
2024/02/21 08:56:40;;;;;;;15.47;8.70;;;8.60;99.90;;;;;;5069718;28;20229;-63
2024/02/21 08:59:08;;;;;;;20.17;10.77;;;8.70;99.90;;;;;;5069543;28;20958;-63
2024/02/21 09:01:35;;;;;;;118.80;37.23;;;8.80;99.90;;;;;;5070085;28;21241;-63
2024/02/21 09:04:02;;;;;;;12.17;7.13;;;8.90;99.90;;;;;;5066843;28;20448;-62
2024/02/21 09:06:30;;;;;;;7.63;6.07;;;9.10;99.90;;;;;;5068918;28;20877;-62
2024/02/21 09:08:57;;;;;;;5.80;4.60;;;9.20;99.90;;;;;;5069105;28;20873;-62
2024/02/21 09:11:24;;;;;;;11.70;6.30;;;9.30;99.90;;;;;;5069527;28;20440;-62
2024/02/21 09:13:51;;;;;;;49.23;18.33;;;9.40;99.90;;;;;;5068740;28;20443;-62
2024/02/21 09:16:19;;;;;;;14.73;6.77;;;9.50;99.90;;;;;;5069149;28;20475;-63
2024/02/21 09:18:46;;;;;;;10.40;5.63;;;9.60;99.90;;;;;;5069125;28;20448;-63
2024/02/21 09:21:13;;;;;;;49.47;17.90;;;9.70;99.90;;;;;;5068054;28;20494;-63
2024/02/21 09:23:40;;;;;;;390.70;99.80;;;9.70;99.90;;;;;;5066704;28;20826;-63
2024/02/21 09:26:09;;;;;;;222.73;55.57;;;9.80;99.90;;;;;;5068489;28;20460;-63
2024/02/21 09:28:36;;;;;;;9.33;6.27;;;9.90;99.90;;;;;;5068612;28;20487;-63
2024/02/21 09:31:03;;;;;;;9.80;4.90;;;9.90;99.90;;;;;;5068249;28;21020;-63
2024/02/21 09:33:31;;;;;;;8.17;5.87;;;10.00;99.90;;;;;;5067694;28;20436;-63
2024/02/21 09:35:58;;;;;;;8.03;4.90;;;10.10;99.90;;;;;;5068487;28;20464;-63
2024/02/21 09:38:24;;;;;;;10.87;5.30;;;10.10;99.90;;;;;;5067957;28;20480;-62
2024/02/21 09:40:59;;;;;;;7.63;5.07;;;10.10;99.90;;;;;;5067950;28;20530;-63
2024/02/21 09:43:26;;;;;;;6.57;4.80;;;10.20;99.90;;;;;;5067993;28;20436;-63
2024/02/21 09:45:56;;;;;;;10.23;5.73;;;10.20;99.90;;;;;;5067926;28;20479;-63
2024/02/21 09:48:49;;;;;;;8.73;5.40;;;10.20;99.90;;;;;;5068810;28;21068;-62
2024/02/21 09:51:17;;;;;;;83.30;26.30;;;10.20;99.90;;;;;;5068593;28;20474;-63
2024/02/21 09:53:45;;;;;;;69.30;19.37;;;10.30;99.90;;;;;;5066014;28;20836;-62
2024/02/21 09:56:13;;;;;;;41.63;11.57;;;10.30;99.90;;;;;;5066644;28;21118;-63
2024/02/21 09:58:41;;;;;;;40.60;12.93;;;10.40;99.90;;;;;;5067448;28;20506;-62
2024/02/21 10:01:08;;;;;;;11.20;6.20;;;10.40;99.90;;;;;;5067660;28;20515;-63
2024/02/21 10:03:35;;;;;;;10.53;5.60;;;10.40;99.90;;;;;;5066650;28;20544;-63
2024/02/21 10:06:04;;;;;;;6.53;5.60;;;10.40;99.90;;;;;;5066978;28;21012;-62
2024/02/21 10:08:30;;;;;;;7.07;4.40;;;10.40;99.90;;;;;;5067974;28;20450;-62
2024/02/21 10:11:00;;;;;;;11.47;4.20;;;10.40;99.90;;;;;;5067565;28;20435;-65
2024/02/21 10:13:28;;;;;;;12.67;6.03;;;10.50;99.90;;;;;;5066391;28;20466;-63
2024/02/21 10:16:05;;;;;;;5.47;5.00;;;10.50;99.90;;;;;;5067299;28;20464;-62
2024/02/21 10:18:32;;;;;;;11.50;6.03;;;10.60;99.90;;;;;;5067951;28;20531;-63
2024/02/21 10:21:06;;;;;;;7.63;5.67;;;10.60;99.90;;;;;;5064339;28;21039;-62
2024/02/21 10:23:46;;;;;;;8.73;5.30;;;10.60;99.90;;;;;;5066956;28;20459;-63
2024/02/21 10:26:13;;;;;;;8.83;4.93;;;10.70;99.90;;;;;;5067707;28;20513;-63
2024/02/21 10:28:42;;;;;;;5.97;5.30;;;10.80;99.90;;;;;;5067878;28;20517;-63
2024/02/21 10:31:10;;;;;;;7.20;4.50;;;10.90;99.90;;;;;;5067573;28;20448;-63
2024/02/21 10:33:38;;;;;;;9.93;4.83;;;11.00;99.90;;;;;;5067330;28;20869;-63
2024/02/21 10:36:10;;;;;;;7.40;4.23;;;11.10;99.90;;;;;;5067058;28;20478;-62
2024/02/21 10:38:38;;;;;;;5.97;4.27;;;11.10;99.90;;;;;;5068008;28;20818;-62
2024/02/21 10:41:06;;;;;;;7.40;4.13;;;11.10;99.90;;;;;;5067862;28;20579;-63
2024/02/21 10:43:38;;;;;;;4.37;3.97;;;11.20;99.90;;;;;;5067349;28;20448;-63
2024/02/21 10:46:07;;;;;;;8.10;4.90;;;11.30;99.90;;;;;;5067138;28;21013;-62
2024/02/21 10:48:45;;;;;;;5.40;4.07;;;11.40;99.90;;;;;;5067118;28;20455;-63
2024/02/21 10:51:22;;;;;;;13.83;4.50;;;11.50;99.90;;;;;;5066898;28;20516;-62
2024/02/21 10:53:59;;;;;;;7.13;4.30;;;11.60;99.90;;;;;;5066986;28;20448;-62
2024/02/21 10:56:30;;;;;;;4.43;3.67;;;11.60;99.90;;;;;;5066213;28;20482;-63
2024/02/21 10:59:00;;;;;;;5.50;4.43;;;11.50;99.90;;;;;;5067163;28;20880;-63
2024/02/21 11:01:31;;;;;;;9.60;4.30;;;11.60;99.90;;;;;;5066903;28;20483;-63
2024/02/21 11:04:00;;;;;;;6.07;3.87;;;11.70;99.90;;;;;;5066994;28;20475;-63
2024/02/21 11:06:30;;;;;;;7.17;3.83;;;11.70;99.90;;;;;;5067215;28;20556;-63
2024/02/21 11:09:04;;;;;;;5.27;4.43;;;11.70;99.90;;;;;;5066955;28;20448;-63
2024/02/21 11:11:34;;;;;;;8.20;4.70;;;11.80;99.90;;;;;;5067472;28;20803;-63
2024/02/21 11:14:08;;;;;;;4.07;3.67;;;11.80;99.90;;;;;;5067082;28;20933;-63
2024/02/21 11:16:39;;;;;;;5.13;4.17;;;11.90;99.90;;;;;;5067225;28;20501;-63
2024/02/21 11:19:10;;;;;;;5.43;3.27;;;12.00;99.90;;;;;;5066671;28;20448;-63
2024/02/21 11:21:40;;;;;;;5.47;4.20;;;12.10;99.90;;;;;;5066025;28;20860;-63
2024/02/21 11:24:08;;;;;;;6.23;3.80;;;12.10;99.90;;;;;;5067137;28;20456;-63
2024/02/21 11:26:37;;;;;;;10.40;4.40;;;12.10;99.90;;;;;;5067110;28;20464;-63
2024/02/21 11:29:05;;;;;;;6.20;2.90;;;12.20;99.90;;;;;;5066481;28;20559;-63
2024/02/21 11:31:42;;;;;;;6.70;3.77;;;12.20;99.90;;;;;;5066018;28;20535;-63
2024/02/21 11:34:12;;;;;;;8.70;3.50;;;12.10;99.90;;;;;;5064314;28;20536;-63
2024/02/21 11:36:49;;;;;;;3.70;2.73;;;12.10;99.90;;;;;;5067180;28;20854;-63
2024/02/21 11:39:22;;;;;;;4.80;3.73;;;12.20;99.90;;;;;;5066168;28;20562;-63
2024/02/21 11:42:04;;;;;;;4.27;3.30;;;12.30;99.90;;;;;;5065016;28;21001;-63
2024/02/21 11:44:31;;;;;;;6.50;3.97;;;12.20;99.90;;;;;;5065696;28;20451;-63
2024/02/21 11:46:58;;;;;;;3.73;3.43;;;12.20;99.90;;;;;;5067602;28;20486;-63
2024/02/21 11:49:26;;;;;;;6.47;3.57;;;12.30;99.90;;;;;;5069532;28;20452;-63
2024/02/21 11:52:01;;;;;;;6.30;4.90;;;12.30;99.90;;;;;;5061432;28;20448;-63
2024/02/21 11:54:27;;;;;;;6.17;3.37;;;12.30;99.90;;;;;;5064042;28;20456;-63
2024/02/21 11:56:54;;;;;;;4.60;3.40;;;12.40;99.90;;;;;;5070119;28;20574;-63
2024/02/21 11:59:21;;;;;;;7.40;3.07;;;12.50;99.90;;;;;;5069732;28;22289;-63
2024/02/21 12:01:49;;;;;;;8.73;3.60;;;12.60;99.90;;;;;;5068114;28;20492;-63
2024/02/21 12:04:19;;;;;;;7.43;3.97;;;12.60;99.90;;;;;;5067415;28;20653;-63
2024/02/21 12:06:46;;;;;;;8.77;4.30;;;12.70;99.90;;;;;;5062919;28;20477;-63
2024/02/21 12:09:16;;;;;;;5.67;3.53;;;12.90;99.90;;;;;;5070121;28;20451;-63
2024/02/21 12:11:44;;;;;;;3.20;2.73;;;13.00;99.90;;;;;;5068543;28;20832;-63
2024/02/21 12:14:11;;;;;;;5.30;3.30;;;13.30;99.90;;;;;;5066745;28;20445;-63
2024/02/21 12:16:38;;;;;;;8.03;3.50;;;13.30;99.90;;;;;;5067005;28;20471;-63
2024/02/21 12:19:05;;;;;;;6.27;3.73;;;13.40;99.90;;;;;;5069764;28;20836;-63
2024/02/21 12:21:36;;;;;;;3.70;3.40;;;13.50;99.90;;;;;;5068875;28;20598;-63
2024/02/21 12:24:12;;;;;;;5.80;3.80;;;13.50;99.90;;;;;;5069208;28;20954;-63
2024/02/21 12:26:41;;;;;;;5.67;3.30;;;13.20;99.90;;;;;;5069959;28;20474;-63
2024/02/21 12:29:09;;;;;;;6.23;2.63;;;13.20;99.90;;;;;;5069248;28;20444;-63
2024/02/21 12:31:36;;;;;;;9.70;3.40;;;13.20;99.90;;;;;;5069687;28;20956;-62
2024/02/21 12:34:03;;;;;;;6.60;3.17;;;13.20;99.90;;;;;;5069119;28;20974;-63
2024/02/21 12:36:30;;;;;;;7.27;3.87;;;13.20;99.90;;;;;;5069172;28;20468;-63
2024/02/21 12:38:56;;;;;;;5.03;3.30;;;13.10;99.90;;;;;;5060645;28;20448;-63
2024/02/21 12:41:25;;;;;;;6.87;3.17;;;13.00;99.90;;;;;;5065568;28;20524;-63
2024/02/21 12:43:53;;;;;;;8.03;3.30;;;13.10;99.90;;;;;;5069338;28;20838;-63
2024/02/21 12:46:20;;;;;;;7.30;3.37;;;13.20;99.90;;;;;;5069551;28;20480;-63
2024/02/21 12:48:47;;;;;;;6.27;3.70;;;13.30;99.90;;;;;;5068827;28;20539;-63
2024/02/21 12:51:15;;;;;;;4.00;3.23;;;13.40;99.90;;;;;;5065327;28;20496;-63
2024/02/21 12:53:42;;;;;;;5.50;3.67;;;13.40;99.90;;;;;;5069120;28;20482;-63